sensor_id;sensor_type;location;lat;lon;timestamp;P1;durP1;ratioP1;P2;durP2;ratioP2
42742;SDS011;28397;44.552;-0.848;2023-05-07T00:02:06;20.27;;;4.80;;
42742;SDS011;28397;44.552;-0.848;2023-05-07T00:04:32;20.15;;;5.25;;
42742;SDS011;28397;44.552;-0.848;2023-05-07T00:07:02;18.85;;;5.15;;
42742;SDS011;28397;44.552;-0.848;2023-05-07T00:09:28;19.17;;;5.00;;
42742;SDS011;28397;44.552;-0.848;2023-05-07T00:11:53;20.45;;;5.05;;
42742;SDS011;28397;44.552;-0.848;2023-05-07T00:14:19;21.30;;;5.20;;
42742;SDS011;28397;44.552;-0.848;2023-05-07T00:16:45;21.65;;;5.45;;
42742;SDS011;28397;44.552;-0.848;2023-05-07T00:19:11;18.13;;;4.63;;
42742;SDS011;28397;44.552;-0.848;2023-05-07T00:21:37;19.40;;;4.85;;
42742;SDS011;28397;44.552;-0.848;2023-05-07T00:24:04;20.55;;;5.50;;
42742;SDS011;28397;44.552;-0.848;2023-05-07T00:26:30;17.75;;;5.07;;
42742;SDS011;28397;44.552;-0.848;2023-05-07T00:28:55;18.38;;;5.18;;
42742;SDS011;28397;44.552;-0.848;2023-05-07T00:31:21;21.00;;;5.32;;
42742;SDS011;28397;44.552;-0.848;2023-05-07T00:33:47;20.65;;;5.32;;
42742;SDS011;28397;44.552;-0.848;2023-05-07T00:36:12;20.88;;;5.68;;
42742;SDS011;28397;44.552;-0.848;2023-05-07T00:38:38;17.98;;;4.68;;
42742;SDS011;28397;44.552;-0.848;2023-05-07T00:41:04;19.75;;;4.90;;
42742;SDS011;28397;44.552;-0.848;2023-05-07T00:43:30;20.55;;;5.18;;
42742;SDS011;28397;44.552;-0.848;2023-05-07T00:45:57;22.40;;;5.63;;
42742;SDS011;28397;44.552;-0.848;2023-05-07T00:48:22;21.40;;;5.20;;
42742;SDS011;28397;44.552;-0.848;2023-05-07T00:50:49;18.50;;;5.32;;
42742;SDS011;28397;44.552;-0.848;2023-05-07T00:53:15;21.08;;;5.30;;
42742;SDS011;28397;44.552;-0.848;2023-05-07T00:55:41;23.58;;;6.13;;
42742;SDS011;28397;44.552;-0.848;2023-05-07T00:58:07;21.33;;;5.25;;
42742;SDS011;28397;44.552;-0.848;2023-05-07T01:00:33;20.10;;;5.03;;
42742;SDS011;28397;44.552;-0.848;2023-05-07T01:03:00;19.98;;;4.80;;
42742;SDS011;28397;44.552;-0.848;2023-05-07T01:05:26;20.33;;;5.15;;
42742;SDS011;28397;44.552;-0.848;2023-05-07T01:07:53;19.02;;;5.43;;
42742;SDS011;28397;44.552;-0.848;2023-05-07T01:10:20;23.63;;;6.15;;
42742;SDS011;28397;44.552;-0.848;2023-05-07T01:12:46;21.38;;;6.10;;
42742;SDS011;28397;44.552;-0.848;2023-05-07T01:15:12;23.30;;;6.47;;
42742;SDS011;28397;44.552;-0.848;2023-05-07T01:17:39;25.58;;;6.40;;
42742;SDS011;28397;44.552;-0.848;2023-05-07T01:20:06;21.88;;;6.45;;
42742;SDS011;28397;44.552;-0.848;2023-05-07T01:22:36;27.17;;;6.97;;
42742;SDS011;28397;44.552;-0.848;2023-05-07T01:25:03;26.70;;;7.30;;
42742;SDS011;28397;44.552;-0.848;2023-05-07T01:27:30;25.48;;;7.05;;
42742;SDS011;28397;44.552;-0.848;2023-05-07T01:29:58;26.90;;;7.18;;
42742;SDS011;28397;44.552;-0.848;2023-05-07T01:35:16;29.25;;;6.95;;
42742;SDS011;28397;44.552;-0.848;2023-05-07T01:37:45;30.80;;;7.93;;
42742;SDS011;28397;44.552;-0.848;2023-05-07T01:40:12;28.08;;;7.13;;
42742;SDS011;28397;44.552;-0.848;2023-05-07T01:42:38;22.63;;;6.60;;
42742;SDS011;28397;44.552;-0.848;2023-05-07T01:45:05;28.63;;;7.00;;
42742;SDS011;28397;44.552;-0.848;2023-05-07T01:47:31;30.15;;;7.20;;
42742;SDS011;28397;44.552;-0.848;2023-05-07T01:49:58;24.23;;;6.50;;
42742;SDS011;28397;44.552;-0.848;2023-05-07T01:52:24;25.83;;;6.85;;
42742;SDS011;28397;44.552;-0.848;2023-05-07T01:54:50;24.15;;;7.05;;
42742;SDS011;28397;44.552;-0.848;2023-05-07T01:57:16;29.83;;;7.30;;
42742;SDS011;28397;44.552;-0.848;2023-05-07T01:59:41;28.30;;;6.97;;
42742;SDS011;28397;44.552;-0.848;2023-05-07T02:02:07;29.17;;;6.90;;
42742;SDS011;28397;44.552;-0.848;2023-05-07T02:04:33;25.77;;;6.75;;
42742;SDS011;28397;44.552;-0.848;2023-05-07T02:06:58;24.10;;;6.82;;
42742;SDS011;28397;44.552;-0.848;2023-05-07T02:09:24;28.08;;;6.95;;
42742;SDS011;28397;44.552;-0.848;2023-05-07T02:11:50;27.27;;;6.43;;
42742;SDS011;28397;44.552;-0.848;2023-05-07T02:14:15;23.67;;;6.15;;
42742;SDS011;28397;44.552;-0.848;2023-05-07T02:16:41;26.08;;;6.70;;
42742;SDS011;28397;44.552;-0.848;2023-05-07T02:19:07;26.77;;;7.00;;
42742;SDS011;28397;44.552;-0.848;2023-05-07T02:21:32;21.48;;;5.93;;
42742;SDS011;28397;44.552;-0.848;2023-05-07T02:23:58;30.10;;;7.25;;
42742;SDS011;28397;44.552;-0.848;2023-05-07T02:26:24;25.85;;;6.13;;
42742;SDS011;28397;44.552;-0.848;2023-05-07T02:28:50;27.02;;;6.82;;
42742;SDS011;28397;44.552;-0.848;2023-05-07T02:31:17;23.88;;;6.38;;
42742;SDS011;28397;44.552;-0.848;2023-05-07T02:33:42;26.85;;;6.55;;
42742;SDS011;28397;44.552;-0.848;2023-05-07T02:36:08;21.70;;;6.22;;
42742;SDS011;28397;44.552;-0.848;2023-05-07T02:38:35;21.30;;;6.35;;
42742;SDS011;28397;44.552;-0.848;2023-05-07T02:41:01;27.92;;;6.45;;
42742;SDS011;28397;44.552;-0.848;2023-05-07T02:43:26;25.98;;;6.28;;
42742;SDS011;28397;44.552;-0.848;2023-05-07T02:46:06;19.27;;;5.90;;
42742;SDS011;28397;44.552;-0.848;2023-05-07T02:48:33;21.25;;;6.20;;
42742;SDS011;28397;44.552;-0.848;2023-05-07T02:50:59;22.88;;;6.40;;
42742;SDS011;28397;44.552;-0.848;2023-05-07T02:53:25;23.95;;;6.38;;
42742;SDS011;28397;44.552;-0.848;2023-05-07T02:55:55;25.05;;;6.20;;
42742;SDS011;28397;44.552;-0.848;2023-05-07T02:58:21;25.45;;;5.88;;
42742;SDS011;28397;44.552;-0.848;2023-05-07T03:00:47;22.55;;;6.45;;
42742;SDS011;28397;44.552;-0.848;2023-05-07T03:03:13;21.58;;;6.07;;
42742;SDS011;28397;44.552;-0.848;2023-05-07T03:05:39;23.50;;;6.07;;
42742;SDS011;28397;44.552;-0.848;2023-05-07T03:08:05;26.45;;;6.47;;
42742;SDS011;28397;44.552;-0.848;2023-05-07T03:10:31;26.67;;;6.72;;
42742;SDS011;28397;44.552;-0.848;2023-05-07T03:12:57;26.13;;;7.03;;
42742;SDS011;28397;44.552;-0.848;2023-05-07T03:15:22;25.05;;;7.30;;
42742;SDS011;28397;44.552;-0.848;2023-05-07T03:17:48;25.08;;;6.43;;
42742;SDS011;28397;44.552;-0.848;2023-05-07T03:20:14;22.55;;;6.45;;
42742;SDS011;28397;44.552;-0.848;2023-05-07T03:22:40;22.67;;;6.43;;
42742;SDS011;28397;44.552;-0.848;2023-05-07T03:25:06;23.85;;;6.20;;
42742;SDS011;28397;44.552;-0.848;2023-05-07T03:27:32;23.13;;;6.45;;
42742;SDS011;28397;44.552;-0.848;2023-05-07T03:29:59;27.65;;;6.65;;
42742;SDS011;28397;44.552;-0.848;2023-05-07T03:32:25;29.10;;;7.05;;
42742;SDS011;28397;44.552;-0.848;2023-05-07T03:34:51;24.63;;;6.32;;
42742;SDS011;28397;44.552;-0.848;2023-05-07T03:37:16;21.98;;;6.75;;
42742;SDS011;28397;44.552;-0.848;2023-05-07T03:39:42;29.80;;;7.97;;
42742;SDS011;28397;44.552;-0.848;2023-05-07T03:42:08;26.58;;;6.60;;
42742;SDS011;28397;44.552;-0.848;2023-05-07T03:44:33;25.15;;;6.38;;
42742;SDS011;28397;44.552;-0.848;2023-05-07T03:47:01;23.70;;;6.90;;
42742;SDS011;28397;44.552;-0.848;2023-05-07T03:49:27;21.13;;;5.85;;
42742;SDS011;28397;44.552;-0.848;2023-05-07T03:51:52;24.70;;;6.90;;
42742;SDS011;28397;44.552;-0.848;2023-05-07T03:54:18;21.95;;;6.15;;
42742;SDS011;28397;44.552;-0.848;2023-05-07T03:56:44;21.42;;;6.80;;
42742;SDS011;28397;44.552;-0.848;2023-05-07T03:59:10;23.60;;;7.38;;
42742;SDS011;28397;44.552;-0.848;2023-05-07T04:01:35;23.55;;;6.50;;
42742;SDS011;28397;44.552;-0.848;2023-05-07T04:04:01;23.02;;;6.30;;
42742;SDS011;28397;44.552;-0.848;2023-05-07T04:06:28;23.77;;;6.82;;
42742;SDS011;28397;44.552;-0.848;2023-05-07T04:08:53;29.75;;;6.80;;
42742;SDS011;28397;44.552;-0.848;2023-05-07T04:11:19;22.90;;;6.90;;
42742;SDS011;28397;44.552;-0.848;2023-05-07T04:13:45;24.10;;;6.45;;
42742;SDS011;28397;44.552;-0.848;2023-05-07T04:16:11;23.63;;;6.75;;
42742;SDS011;28397;44.552;-0.848;2023-05-07T04:18:36;21.38;;;6.20;;
42742;SDS011;28397;44.552;-0.848;2023-05-07T04:21:02;27.60;;;7.15;;
42742;SDS011;28397;44.552;-0.848;2023-05-07T04:23:28;22.73;;;6.25;;
42742;SDS011;28397;44.552;-0.848;2023-05-07T04:25:53;24.08;;;6.60;;
42742;SDS011;28397;44.552;-0.848;2023-05-07T04:28:20;28.20;;;6.65;;
42742;SDS011;28397;44.552;-0.848;2023-05-07T04:30:45;20.52;;;5.80;;
42742;SDS011;28397;44.552;-0.848;2023-05-07T04:33:11;21.63;;;5.78;;
42742;SDS011;28397;44.552;-0.848;2023-05-07T04:35:38;22.13;;;6.22;;
42742;SDS011;28397;44.552;-0.848;2023-05-07T04:38:04;22.83;;;5.70;;
42742;SDS011;28397;44.552;-0.848;2023-05-07T04:40:30;22.10;;;6.32;;
42742;SDS011;28397;44.552;-0.848;2023-05-07T04:42:56;21.05;;;5.00;;
42742;SDS011;28397;44.552;-0.848;2023-05-07T04:45:21;18.52;;;5.03;;
42742;SDS011;28397;44.552;-0.848;2023-05-07T04:47:47;17.88;;;5.22;;
42742;SDS011;28397;44.552;-0.848;2023-05-07T04:50:13;16.88;;;5.30;;
42742;SDS011;28397;44.552;-0.848;2023-05-07T04:52:38;18.13;;;5.07;;
42742;SDS011;28397;44.552;-0.848;2023-05-07T04:55:04;19.30;;;4.95;;
42742;SDS011;28397;44.552;-0.848;2023-05-07T04:57:30;18.60;;;4.90;;
42742;SDS011;28397;44.552;-0.848;2023-05-07T04:59:55;19.50;;;5.07;;
42742;SDS011;28397;44.552;-0.848;2023-05-07T05:02:22;17.30;;;5.50;;
42742;SDS011;28397;44.552;-0.848;2023-05-07T05:04:47;18.67;;;4.60;;
42742;SDS011;28397;44.552;-0.848;2023-05-07T05:07:13;15.35;;;4.63;;
42742;SDS011;28397;44.552;-0.848;2023-05-07T05:09:39;18.52;;;5.57;;
42742;SDS011;28397;44.552;-0.848;2023-05-07T05:12:04;18.45;;;5.45;;
42742;SDS011;28397;44.552;-0.848;2023-05-07T05:14:32;14.55;;;5.05;;
42742;SDS011;28397;44.552;-0.848;2023-05-07T05:16:57;14.55;;;4.70;;
42742;SDS011;28397;44.552;-0.848;2023-05-07T05:19:23;23.00;;;5.30;;
42742;SDS011;28397;44.552;-0.848;2023-05-07T05:21:49;21.40;;;5.15;;
42742;SDS011;28397;44.552;-0.848;2023-05-07T05:24:14;19.50;;;5.30;;
42742;SDS011;28397;44.552;-0.848;2023-05-07T05:26:40;19.42;;;5.13;;
42742;SDS011;28397;44.552;-0.848;2023-05-07T05:29:06;20.60;;;6.03;;
42742;SDS011;28397;44.552;-0.848;2023-05-07T05:31:33;19.02;;;5.00;;
42742;SDS011;28397;44.552;-0.848;2023-05-07T05:33:58;16.33;;;5.10;;
42742;SDS011;28397;44.552;-0.848;2023-05-07T05:36:24;19.83;;;5.25;;
42742;SDS011;28397;44.552;-0.848;2023-05-07T05:38:50;19.80;;;5.95;;
42742;SDS011;28397;44.552;-0.848;2023-05-07T05:41:16;20.02;;;5.32;;
42742;SDS011;28397;44.552;-0.848;2023-05-07T05:43:42;19.52;;;5.68;;
42742;SDS011;28397;44.552;-0.848;2023-05-07T05:46:07;23.50;;;5.68;;
42742;SDS011;28397;44.552;-0.848;2023-05-07T05:48:36;23.00;;;5.97;;
42742;SDS011;28397;44.552;-0.848;2023-05-07T05:51:01;24.60;;;6.00;;
42742;SDS011;28397;44.552;-0.848;2023-05-07T05:53:27;21.45;;;5.85;;
42742;SDS011;28397;44.552;-0.848;2023-05-07T05:55:53;22.20;;;5.85;;
42742;SDS011;28397;44.552;-0.848;2023-05-07T05:58:18;20.77;;;5.53;;
42742;SDS011;28397;44.552;-0.848;2023-05-07T06:00:45;22.70;;;6.15;;
42742;SDS011;28397;44.552;-0.848;2023-05-07T06:03:13;21.40;;;5.65;;
42742;SDS011;28397;44.552;-0.848;2023-05-07T06:05:38;20.73;;;5.80;;
42742;SDS011;28397;44.552;-0.848;2023-05-07T06:08:04;23.35;;;5.72;;
42742;SDS011;28397;44.552;-0.848;2023-05-07T06:10:30;19.15;;;5.47;;
42742;SDS011;28397;44.552;-0.848;2023-05-07T06:12:56;25.30;;;6.00;;
42742;SDS011;28397;44.552;-0.848;2023-05-07T06:15:22;19.85;;;5.88;;
42742;SDS011;28397;44.552;-0.848;2023-05-07T06:17:47;24.25;;;6.00;;
42742;SDS011;28397;44.552;-0.848;2023-05-07T06:20:14;22.85;;;5.72;;
42742;SDS011;28397;44.552;-0.848;2023-05-07T06:22:39;19.17;;;5.45;;
42742;SDS011;28397;44.552;-0.848;2023-05-07T06:25:05;19.63;;;5.63;;
42742;SDS011;28397;44.552;-0.848;2023-05-07T06:27:31;21.05;;;5.80;;
42742;SDS011;28397;44.552;-0.848;2023-05-07T06:29:57;21.85;;;6.22;;
42742;SDS011;28397;44.552;-0.848;2023-05-07T06:32:23;23.48;;;5.72;;
42742;SDS011;28397;44.552;-0.848;2023-05-07T06:34:48;24.10;;;5.65;;
42742;SDS011;28397;44.552;-0.848;2023-05-07T06:37:14;22.52;;;6.15;;
42742;SDS011;28397;44.552;-0.848;2023-05-07T06:39:40;22.85;;;6.20;;
42742;SDS011;28397;44.552;-0.848;2023-05-07T06:42:06;23.20;;;5.38;;
42742;SDS011;28397;44.552;-0.848;2023-05-07T06:44:31;22.02;;;5.38;;
42742;SDS011;28397;44.552;-0.848;2023-05-07T06:46:57;23.42;;;6.38;;
42742;SDS011;28397;44.552;-0.848;2023-05-07T06:49:23;22.58;;;5.78;;
42742;SDS011;28397;44.552;-0.848;2023-05-07T06:51:48;17.52;;;5.05;;
42742;SDS011;28397;44.552;-0.848;2023-05-07T06:54:14;20.58;;;5.80;;
42742;SDS011;28397;44.552;-0.848;2023-05-07T06:56:40;17.52;;;5.13;;
42742;SDS011;28397;44.552;-0.848;2023-05-07T06:59:06;18.27;;;5.05;;
42742;SDS011;28397;44.552;-0.848;2023-05-07T07:01:31;20.70;;;5.07;;
42742;SDS011;28397;44.552;-0.848;2023-05-07T07:03:57;20.83;;;5.80;;
42742;SDS011;28397;44.552;-0.848;2023-05-07T07:06:23;20.98;;;6.00;;
42742;SDS011;28397;44.552;-0.848;2023-05-07T07:08:48;17.92;;;5.10;;
42742;SDS011;28397;44.552;-0.848;2023-05-07T07:11:14;17.77;;;5.30;;
42742;SDS011;28397;44.552;-0.848;2023-05-07T07:13:40;18.15;;;5.75;;
42742;SDS011;28397;44.552;-0.848;2023-05-07T07:16:07;17.58;;;4.82;;
42742;SDS011;28397;44.552;-0.848;2023-05-07T07:18:33;16.35;;;4.75;;
42742;SDS011;28397;44.552;-0.848;2023-05-07T07:20:59;20.75;;;5.72;;
42742;SDS011;28397;44.552;-0.848;2023-05-07T07:23:24;17.38;;;5.15;;
42742;SDS011;28397;44.552;-0.848;2023-05-07T07:25:50;18.70;;;5.03;;
42742;SDS011;28397;44.552;-0.848;2023-05-07T07:28:16;17.02;;;4.82;;
42742;SDS011;28397;44.552;-0.848;2023-05-07T07:30:42;17.08;;;4.65;;
42742;SDS011;28397;44.552;-0.848;2023-05-07T07:33:08;15.43;;;4.55;;
42742;SDS011;28397;44.552;-0.848;2023-05-07T07:35:33;18.73;;;5.22;;
42742;SDS011;28397;44.552;-0.848;2023-05-07T07:38:00;19.63;;;5.10;;
42742;SDS011;28397;44.552;-0.848;2023-05-07T07:40:26;18.40;;;5.25;;
42742;SDS011;28397;44.552;-0.848;2023-05-07T07:42:52;20.55;;;4.97;;
42742;SDS011;28397;44.552;-0.848;2023-05-07T07:45:18;20.65;;;5.20;;
42742;SDS011;28397;44.552;-0.848;2023-05-07T07:47:44;21.35;;;5.05;;
42742;SDS011;28397;44.552;-0.848;2023-05-07T07:50:10;15.50;;;4.70;;
42742;SDS011;28397;44.552;-0.848;2023-05-07T07:52:36;17.98;;;4.85;;
42742;SDS011;28397;44.552;-0.848;2023-05-07T07:55:02;18.63;;;5.13;;
42742;SDS011;28397;44.552;-0.848;2023-05-07T07:57:28;15.70;;;4.85;;
42742;SDS011;28397;44.552;-0.848;2023-05-07T07:59:53;15.85;;;4.85;;
42742;SDS011;28397;44.552;-0.848;2023-05-07T08:02:19;16.65;;;4.38;;
42742;SDS011;28397;44.552;-0.848;2023-05-07T08:04:45;15.00;;;4.50;;
42742;SDS011;28397;44.552;-0.848;2023-05-07T08:07:11;14.98;;;4.50;;
42742;SDS011;28397;44.552;-0.848;2023-05-07T08:09:37;15.75;;;4.03;;
42742;SDS011;28397;44.552;-0.848;2023-05-07T08:12:04;20.77;;;5.05;;
42742;SDS011;28397;44.552;-0.848;2023-05-07T08:14:33;15.70;;;4.10;;
42742;SDS011;28397;44.552;-0.848;2023-05-07T08:16:59;14.70;;;4.75;;
42742;SDS011;28397;44.552;-0.848;2023-05-07T08:19:25;15.45;;;4.63;;
42742;SDS011;28397;44.552;-0.848;2023-05-07T08:21:51;16.50;;;4.85;;
42742;SDS011;28397;44.552;-0.848;2023-05-07T08:24:17;16.83;;;4.72;;
42742;SDS011;28397;44.552;-0.848;2023-05-07T08:26:43;20.77;;;4.82;;
42742;SDS011;28397;44.552;-0.848;2023-05-07T08:29:10;16.75;;;4.85;;
42742;SDS011;28397;44.552;-0.848;2023-05-07T08:31:35;19.77;;;4.78;;
42742;SDS011;28397;44.552;-0.848;2023-05-07T08:34:01;14.50;;;4.22;;
42742;SDS011;28397;44.552;-0.848;2023-05-07T08:36:28;17.77;;;4.82;;
42742;SDS011;28397;44.552;-0.848;2023-05-07T08:38:54;14.88;;;4.70;;
42742;SDS011;28397;44.552;-0.848;2023-05-07T08:41:20;15.52;;;4.63;;
42742;SDS011;28397;44.552;-0.848;2023-05-07T08:43:46;16.05;;;4.65;;
42742;SDS011;28397;44.552;-0.848;2023-05-07T08:46:17;18.35;;;5.28;;
42742;SDS011;28397;44.552;-0.848;2023-05-07T08:48:49;16.58;;;4.43;;
42742;SDS011;28397;44.552;-0.848;2023-05-07T08:51:19;16.30;;;4.60;;
42742;SDS011;28397;44.552;-0.848;2023-05-07T08:53:46;19.58;;;4.72;;
42742;SDS011;28397;44.552;-0.848;2023-05-07T08:56:13;15.52;;;4.47;;
42742;SDS011;28397;44.552;-0.848;2023-05-07T08:58:45;14.23;;;4.72;;
42742;SDS011;28397;44.552;-0.848;2023-05-07T09:01:14;20.38;;;5.20;;
42742;SDS011;28397;44.552;-0.848;2023-05-07T09:03:41;16.42;;;5.38;;
42742;SDS011;28397;44.552;-0.848;2023-05-07T09:06:10;19.98;;;5.07;;
42742;SDS011;28397;44.552;-0.848;2023-05-07T09:08:36;20.17;;;6.03;;
42742;SDS011;28397;44.552;-0.848;2023-05-07T09:11:02;21.30;;;5.60;;
42742;SDS011;28397;44.552;-0.848;2023-05-07T09:13:28;17.95;;;5.05;;
42742;SDS011;28397;44.552;-0.848;2023-05-07T09:15:54;21.35;;;5.00;;
42742;SDS011;28397;44.552;-0.848;2023-05-07T09:18:21;20.75;;;5.78;;
42742;SDS011;28397;44.552;-0.848;2023-05-07T09:20:48;16.80;;;5.13;;
42742;SDS011;28397;44.552;-0.848;2023-05-07T09:23:14;19.52;;;4.90;;
42742;SDS011;28397;44.552;-0.848;2023-05-07T09:25:40;23.00;;;5.20;;
42742;SDS011;28397;44.552;-0.848;2023-05-07T09:28:05;18.77;;;4.90;;
42742;SDS011;28397;44.552;-0.848;2023-05-07T09:30:32;16.02;;;4.47;;
42742;SDS011;28397;44.552;-0.848;2023-05-07T09:32:59;20.15;;;5.20;;
42742;SDS011;28397;44.552;-0.848;2023-05-07T09:35:26;16.77;;;4.95;;
42742;SDS011;28397;44.552;-0.848;2023-05-07T09:37:53;13.80;;;4.63;;
42742;SDS011;28397;44.552;-0.848;2023-05-07T09:40:23;18.95;;;4.65;;
42742;SDS011;28397;44.552;-0.848;2023-05-07T09:42:50;16.88;;;5.07;;
42742;SDS011;28397;44.552;-0.848;2023-05-07T09:45:26;21.23;;;5.18;;
42742;SDS011;28397;44.552;-0.848;2023-05-07T09:47:55;18.67;;;5.38;;
42742;SDS011;28397;44.552;-0.848;2023-05-07T09:50:32;17.98;;;5.00;;
42742;SDS011;28397;44.552;-0.848;2023-05-07T09:53:01;18.42;;;4.55;;
42742;SDS011;28397;44.552;-0.848;2023-05-07T09:55:28;17.73;;;5.45;;
42742;SDS011;28397;44.552;-0.848;2023-05-07T09:57:54;17.85;;;4.70;;
42742;SDS011;28397;44.552;-0.848;2023-05-07T10:00:21;22.50;;;5.32;;
42742;SDS011;28397;44.552;-0.848;2023-05-07T10:02:48;16.88;;;4.90;;
42742;SDS011;28397;44.552;-0.848;2023-05-07T10:05:17;21.63;;;5.90;;
42742;SDS011;28397;44.552;-0.848;2023-05-07T10:07:43;22.52;;;5.43;;
42742;SDS011;28397;44.552;-0.848;2023-05-07T10:10:11;18.67;;;5.35;;
42742;SDS011;28397;44.552;-0.848;2023-05-07T10:12:37;15.90;;;5.15;;
42742;SDS011;28397;44.552;-0.848;2023-05-07T10:15:08;17.55;;;4.72;;
42742;SDS011;28397;44.552;-0.848;2023-05-07T10:17:38;20.30;;;5.28;;
42742;SDS011;28397;44.552;-0.848;2023-05-07T10:20:05;15.55;;;4.50;;
42742;SDS011;28397;44.552;-0.848;2023-05-07T10:22:41;17.95;;;4.88;;
42742;SDS011;28397;44.552;-0.848;2023-05-07T10:25:18;19.08;;;6.10;;
42742;SDS011;28397;44.552;-0.848;2023-05-07T10:27:48;16.50;;;5.10;;
42742;SDS011;28397;44.552;-0.848;2023-05-07T10:32:53;17.50;;;5.13;;
42742;SDS011;28397;44.552;-0.848;2023-05-07T10:35:22;14.23;;;4.47;;
42742;SDS011;28397;44.552;-0.848;2023-05-07T10:37:51;19.95;;;4.95;;
42742;SDS011;28397;44.552;-0.848;2023-05-07T10:40:17;15.20;;;5.20;;
42742;SDS011;28397;44.552;-0.848;2023-05-07T10:42:57;20.25;;;5.47;;
42742;SDS011;28397;44.552;-0.848;2023-05-07T10:45:29;16.02;;;4.53;;
42742;SDS011;28397;44.552;-0.848;2023-05-07T10:50:35;14.05;;;4.28;;
42742;SDS011;28397;44.552;-0.848;2023-05-07T10:55:48;17.27;;;5.72;;
42742;SDS011;28397;44.552;-0.848;2023-05-07T10:58:43;16.95;;;5.72;;
42742;SDS011;28397;44.552;-0.848;2023-05-07T11:01:09;18.15;;;5.13;;
42742;SDS011;28397;44.552;-0.848;2023-05-07T11:03:37;17.27;;;4.72;;
42742;SDS011;28397;44.552;-0.848;2023-05-07T11:06:42;19.98;;;4.82;;
42742;SDS011;28397;44.552;-0.848;2023-05-07T11:15:05;15.90;;;5.07;;
42742;SDS011;28397;44.552;-0.848;2023-05-07T11:17:33;21.05;;;5.03;;
42742;SDS011;28397;44.552;-0.848;2023-05-07T11:20:00;15.52;;;4.53;;
42742;SDS011;28397;44.552;-0.848;2023-05-07T11:24:55;19.30;;;5.30;;
42742;SDS011;28397;44.552;-0.848;2023-05-07T11:27:23;20.40;;;5.43;;
42742;SDS011;28397;44.552;-0.848;2023-05-07T11:29:49;16.88;;;5.07;;
42742;SDS011;28397;44.552;-0.848;2023-05-07T11:32:15;15.57;;;4.35;;
42742;SDS011;28397;44.552;-0.848;2023-05-07T11:34:51;15.18;;;4.57;;
42742;SDS011;28397;44.552;-0.848;2023-05-07T11:37:19;18.27;;;5.13;;
42742;SDS011;28397;44.552;-0.848;2023-05-07T11:39:45;17.73;;;5.20;;
42742;SDS011;28397;44.552;-0.848;2023-05-07T11:42:30;20.98;;;5.32;;
42742;SDS011;28397;44.552;-0.848;2023-05-07T11:44:57;18.80;;;5.53;;
42742;SDS011;28397;44.552;-0.848;2023-05-07T11:47:23;18.52;;;5.10;;
42742;SDS011;28397;44.552;-0.848;2023-05-07T11:49:50;21.52;;;5.75;;
42742;SDS011;28397;44.552;-0.848;2023-05-07T11:52:17;20.10;;;5.80;;
42742;SDS011;28397;44.552;-0.848;2023-05-07T11:54:54;18.08;;;5.07;;
42742;SDS011;28397;44.552;-0.848;2023-05-07T11:57:22;21.77;;;6.25;;
42742;SDS011;28397;44.552;-0.848;2023-05-07T11:59:52;18.88;;;5.38;;
42742;SDS011;28397;44.552;-0.848;2023-05-07T12:02:18;15.50;;;5.18;;
42742;SDS011;28397;44.552;-0.848;2023-05-07T12:04:44;21.15;;;5.25;;
42742;SDS011;28397;44.552;-0.848;2023-05-07T12:07:13;17.10;;;5.45;;
42742;SDS011;28397;44.552;-0.848;2023-05-07T12:09:43;19.38;;;5.38;;
42742;SDS011;28397;44.552;-0.848;2023-05-07T12:12:09;18.17;;;5.15;;
42742;SDS011;28397;44.552;-0.848;2023-05-07T12:14:39;22.27;;;5.50;;
42742;SDS011;28397;44.552;-0.848;2023-05-07T12:17:05;15.75;;;4.90;;
42742;SDS011;28397;44.552;-0.848;2023-05-07T12:19:35;16.60;;;5.00;;
42742;SDS011;28397;44.552;-0.848;2023-05-07T12:22:02;19.10;;;5.22;;
42742;SDS011;28397;44.552;-0.848;2023-05-07T12:24:28;17.95;;;6.15;;
42742;SDS011;28397;44.552;-0.848;2023-05-07T12:27:06;16.35;;;5.05;;
42742;SDS011;28397;44.552;-0.848;2023-05-07T12:29:32;20.33;;;5.82;;
42742;SDS011;28397;44.552;-0.848;2023-05-07T12:31:57;17.38;;;5.68;;
42742;SDS011;28397;44.552;-0.848;2023-05-07T12:34:23;19.52;;;5.10;;
42742;SDS011;28397;44.552;-0.848;2023-05-07T12:36:49;18.15;;;5.03;;
42742;SDS011;28397;44.552;-0.848;2023-05-07T12:39:15;23.60;;;7.05;;
42742;SDS011;28397;44.552;-0.848;2023-05-07T12:41:56;26.63;;;6.22;;
42742;SDS011;28397;44.552;-0.848;2023-05-07T12:44:29;22.27;;;6.03;;
42742;SDS011;28397;44.552;-0.848;2023-05-07T12:47:01;23.63;;;5.87;;
42742;SDS011;28397;44.552;-0.848;2023-05-07T12:49:27;21.30;;;6.20;;
42742;SDS011;28397;44.552;-0.848;2023-05-07T12:51:53;21.90;;;5.70;;
42742;SDS011;28397;44.552;-0.848;2023-05-07T12:54:29;21.90;;;6.28;;
42742;SDS011;28397;44.552;-0.848;2023-05-07T12:57:00;25.42;;;6.25;;
42742;SDS011;28397;44.552;-0.848;2023-05-07T12:59:33;26.02;;;6.07;;
42742;SDS011;28397;44.552;-0.848;2023-05-07T13:02:01;22.05;;;5.93;;
42742;SDS011;28397;44.552;-0.848;2023-05-07T13:04:26;19.45;;;5.05;;
42742;SDS011;28397;44.552;-0.848;2023-05-07T13:06:52;19.15;;;5.25;;
42742;SDS011;28397;44.552;-0.848;2023-05-07T13:09:17;22.80;;;5.50;;
42742;SDS011;28397;44.552;-0.848;2023-05-07T13:11:43;19.75;;;5.20;;
42742;SDS011;28397;44.552;-0.848;2023-05-07T13:14:09;19.55;;;6.00;;
42742;SDS011;28397;44.552;-0.848;2023-05-07T13:16:34;19.25;;;5.82;;
42742;SDS011;28397;44.552;-0.848;2023-05-07T13:19:00;16.40;;;4.80;;
42742;SDS011;28397;44.552;-0.848;2023-05-07T13:21:26;21.45;;;5.53;;
42742;SDS011;28397;44.552;-0.848;2023-05-07T13:23:51;22.13;;;5.95;;
42742;SDS011;28397;44.552;-0.848;2023-05-07T13:26:17;17.40;;;5.75;;
42742;SDS011;28397;44.552;-0.848;2023-05-07T13:28:43;19.23;;;5.47;;
42742;SDS011;28397;44.552;-0.848;2023-05-07T13:31:09;18.52;;;5.80;;
42742;SDS011;28397;44.552;-0.848;2023-05-07T13:33:35;20.95;;;5.72;;
42742;SDS011;28397;44.552;-0.848;2023-05-07T13:36:01;17.88;;;5.43;;
42742;SDS011;28397;44.552;-0.848;2023-05-07T13:38:29;22.95;;;6.03;;
42742;SDS011;28397;44.552;-0.848;2023-05-07T13:40:55;19.40;;;5.28;;
42742;SDS011;28397;44.552;-0.848;2023-05-07T13:43:20;16.05;;;5.38;;
42742;SDS011;28397;44.552;-0.848;2023-05-07T13:45:46;16.63;;;5.50;;
42742;SDS011;28397;44.552;-0.848;2023-05-07T13:48:11;17.63;;;4.90;;
42742;SDS011;28397;44.552;-0.848;2023-05-07T13:50:37;16.25;;;5.18;;
42742;SDS011;28397;44.552;-0.848;2023-05-07T13:53:03;17.30;;;5.32;;
42742;SDS011;28397;44.552;-0.848;2023-05-07T13:55:29;18.45;;;5.07;;
42742;SDS011;28397;44.552;-0.848;2023-05-07T13:57:55;16.38;;;4.70;;
42742;SDS011;28397;44.552;-0.848;2023-05-07T14:00:22;15.25;;;4.47;;
42742;SDS011;28397;44.552;-0.848;2023-05-07T14:02:49;16.73;;;4.63;;
42742;SDS011;28397;44.552;-0.848;2023-05-07T14:05:15;16.02;;;4.65;;
42742;SDS011;28397;44.552;-0.848;2023-05-07T14:07:40;14.70;;;4.55;;
42742;SDS011;28397;44.552;-0.848;2023-05-07T14:10:06;16.20;;;5.00;;
42742;SDS011;28397;44.552;-0.848;2023-05-07T14:12:32;18.13;;;5.22;;
42742;SDS011;28397;44.552;-0.848;2023-05-07T14:14:58;17.75;;;5.15;;
42742;SDS011;28397;44.552;-0.848;2023-05-07T14:17:24;19.63;;;5.15;;
42742;SDS011;28397;44.552;-0.848;2023-05-07T14:19:51;19.02;;;5.40;;
42742;SDS011;28397;44.552;-0.848;2023-05-07T14:22:19;22.80;;;6.65;;
42742;SDS011;28397;44.552;-0.848;2023-05-07T14:24:46;21.77;;;5.85;;
42742;SDS011;28397;44.552;-0.848;2023-05-07T14:27:12;27.67;;;6.63;;
42742;SDS011;28397;44.552;-0.848;2023-05-07T14:29:38;19.95;;;6.25;;
42742;SDS011;28397;44.552;-0.848;2023-05-07T14:32:03;17.50;;;5.40;;
42742;SDS011;28397;44.552;-0.848;2023-05-07T14:34:29;20.90;;;6.32;;
42742;SDS011;28397;44.552;-0.848;2023-05-07T14:36:56;21.00;;;5.93;;
42742;SDS011;28397;44.552;-0.848;2023-05-07T14:39:21;22.90;;;6.45;;